createdAt,value
2023-04-10T00:03:41.604Z,8.68
2023-04-10T00:08:47.494Z,8.58
2023-04-10T00:13:51.153Z,8.48
2023-04-10T00:19:00.731Z,8.38
2023-04-10T00:24:04.966Z,8.35
2023-04-10T00:29:08.408Z,8.37
2023-04-10T00:34:12.154Z,8.23
2023-04-10T00:39:25.886Z,8.06
2023-04-10T00:44:29.292Z,8.03
2023-04-10T00:49:56.054Z,7.92
2023-04-10T00:54:59.582Z,7.92
2023-04-10T01:00:52.602Z,7.89
2023-04-10T01:06:08.199Z,7.83
2023-04-10T01:11:25.422Z,7.72
2023-04-10T01:16:46.617Z,7.61
2023-04-10T01:21:52.816Z,7.68
2023-04-10T01:27:25.369Z,7.66
2023-04-10T01:32:34.810Z,7.61
2023-04-10T01:37:44.463Z,7.57
2023-04-10T01:43:05.514Z,7.54
2023-04-10T01:48:22.480Z,7.45
2023-04-10T01:53:31.625Z,7.42
2023-04-10T01:58:36.863Z,7.41
2023-04-10T02:03:41.372Z,7.40
2023-04-10T02:09:22.015Z,7.29
2023-04-10T02:14:31.821Z,7.17
2023-04-10T02:19:37.543Z,7.14
2023-04-10T02:24:41.170Z,7.14
2023-04-10T02:29:44.726Z,7.14
2023-04-10T02:35:08.836Z,7.16
2023-04-10T02:40:13.788Z,7.00
2023-04-10T02:45:27.276Z,6.87
2023-04-10T02:50:32.416Z,6.77
2023-04-10T02:55:36.252Z,6.74
2023-04-10T03:00:39.755Z,6.76
2023-04-10T03:05:51.633Z,6.67
2023-04-10T03:10:59.103Z,6.68
2023-04-10T03:16:03.327Z,6.56
2023-04-10T03:21:07.663Z,6.45
2023-04-10T03:26:24.236Z,6.26
2023-04-10T03:31:28.282Z,6.16
2023-04-10T03:36:33.491Z,6.16
2023-04-10T03:41:39.231Z,6.28
2023-04-10T03:46:53.839Z,6.27
2023-04-10T03:51:57.553Z,6.18
2023-04-10T03:57:01.699Z,6.09
2023-04-10T04:02:07.713Z,6.02
2023-04-10T04:07:13.608Z,6.03
2023-04-10T04:12:31.383Z,6.08
2023-04-10T04:17:42.506Z,6.10
2023-04-10T04:23:06.213Z,6.07
2023-04-10T04:28:39.221Z,6.13
2023-04-10T04:34:23.205Z,6.35
2023-04-10T04:39:51.920Z,6.47
2023-04-10T04:45:24.974Z,6.54
2023-04-10T04:50:43.797Z,6.66
2023-04-10T04:56:10.092Z,6.84
2023-04-10T05:01:26.610Z,7.02
2023-04-10T05:06:50.617Z,7.17
2023-04-10T05:12:45.711Z,7.35
2023-04-10T05:18:14.284Z,7.55
2023-04-10T05:23:37.100Z,7.76
2023-04-10T05:29:06.541Z,8.04
2023-04-10T05:34:30.200Z,8.43
2023-04-10T05:39:52.514Z,8.78
2023-04-10T05:45:28.980Z,9.33
2023-04-10T05:50:52.922Z,10.16
2023-04-10T05:56:22.283Z,11.11
2023-04-10T06:01:42.293Z,12.00
2023-04-10T06:06:48.901Z,12.48
2023-04-10T06:11:54.951Z,13.07
2023-04-10T06:17:03.487Z,14.13
2023-04-10T06:22:07.006Z,14.80
2023-04-10T06:27:10.392Z,15.10
2023-04-10T06:32:16.541Z,15.34
2023-04-10T06:37:20.135Z,15.56
2023-04-10T06:42:23.470Z,15.86
2023-04-10T06:47:33.279Z,16.27
2023-04-10T06:52:36.729Z,16.40
2023-04-10T06:57:40.551Z,16.42
2023-04-10T07:02:43.742Z,16.49
2023-04-10T07:07:47.735Z,16.67
2023-04-10T07:12:51.233Z,16.79
2023-04-10T07:17:56.360Z,16.67
2023-04-10T07:22:59.752Z,16.65
2023-04-10T07:28:03.153Z,16.60
2023-04-10T07:33:06.979Z,16.50
2023-04-10T07:38:12.005Z,16.32
2023-04-10T07:43:15.671Z,16.15
2023-04-10T07:48:19.038Z,16.16
2023-04-10T07:53:22.422Z,16.16
2023-04-10T07:58:25.950Z,16.09
2023-04-10T08:03:32.075Z,16.13
2023-04-10T08:08:37.650Z,16.23
2023-04-10T08:13:41.062Z,16.28
2023-04-10T08:18:44.273Z,16.18
2023-04-10T08:23:47.605Z,16.11
2023-04-10T08:29:01.583Z,16.05
2023-04-10T08:34:05.062Z,15.95
2023-04-10T08:39:08.573Z,15.89
2023-04-10T08:44:12.252Z,15.94
2023-04-10T08:49:40.853Z,15.95
2023-04-10T08:54:48.538Z,16.04
2023-04-10T08:59:51.954Z,16.02
2023-04-10T09:04:59.154Z,15.96
2023-04-10T09:10:02.465Z,15.95
2023-04-10T09:15:06.514Z,15.92
2023-04-10T09:20:22.520Z,15.90
2023-04-10T09:25:35.035Z,15.99
2023-04-10T09:30:42.608Z,16.06
2023-04-10T09:35:46.198Z,16.14
2023-04-10T09:40:50.455Z,16.24
2023-04-10T09:45:56.662Z,16.21
2023-04-10T09:51:00.132Z,16.16
2023-04-10T09:56:22.325Z,16.26
2023-04-10T10:01:30.182Z,16.43
2023-04-10T10:06:34.855Z,16.56
2023-04-10T10:11:38.327Z,16.69
2023-04-10T10:16:49.684Z,16.80
2023-04-10T10:21:55.588Z,16.96
2023-04-10T10:27:01.911Z,16.85
2023-04-10T10:32:08.512Z,16.74
2023-04-10T10:37:12.536Z,16.67
2023-04-10T10:42:43.478Z,16.72
2023-04-10T10:47:53.789Z,16.89
2023-04-10T10:52:57.764Z,17.09
2023-04-10T10:58:05.529Z,17.17
2023-04-10T11:03:08.974Z,17.23
2023-04-10T11:08:12.368Z,17.35
2023-04-10T11:13:18.009Z,17.33
2023-04-10T11:18:51.203Z,17.25
2023-04-10T11:23:59.624Z,17.24
2023-04-10T11:29:04.626Z,17.28
2023-04-10T11:34:10.708Z,17.48
2023-04-10T11:39:20.520Z,17.48
2023-04-10T11:44:30.578Z,17.29
2023-04-10T11:49:42.961Z,17.13
2023-04-10T11:54:49.380Z,17.16
2023-04-10T11:59:52.714Z,17.33
2023-04-10T12:05:07.911Z,17.50
2023-04-10T12:10:21.618Z,17.70
2023-04-10T12:15:29.431Z,17.77
2023-04-10T12:20:44.961Z,17.88
2023-04-10T12:25:48.418Z,17.88
2023-04-10T12:30:53.562Z,17.73
2023-04-10T12:35:57.049Z,17.71
2023-04-10T12:41:01.577Z,17.88
2023-04-10T12:46:06.670Z,18.01
2023-04-10T12:51:12.477Z,18.12
2023-04-10T12:56:25.928Z,18.11
2023-04-10T13:01:29.368Z,18.02
2023-04-10T13:06:32.968Z,18.04
2023-04-10T13:11:36.497Z,18.17
2023-04-10T13:17:01.003Z,18.32
2023-04-10T13:22:12.675Z,18.50
2023-04-10T13:27:16.223Z,18.63
2023-04-10T13:32:19.480Z,18.51
2023-04-10T13:37:22.856Z,18.41
2023-04-10T13:42:26.687Z,18.36
2023-04-10T13:47:30.139Z,18.29
2023-04-10T13:52:33.445Z,18.27
2023-04-10T13:57:36.895Z,18.24
2023-04-10T14:02:40.796Z,18.17
2023-04-10T14:07:44.288Z,18.11
2023-04-10T14:12:47.484Z,18.01
2023-04-10T14:17:50.818Z,17.71
2023-04-10T14:22:54.179Z,17.38
2023-04-10T14:27:57.544Z,17.16
2023-04-10T14:33:01.079Z,17.04
2023-04-10T14:38:04.634Z,16.93
2023-04-10T14:43:08.226Z,16.82
2023-04-10T14:48:12.953Z,16.73
2023-04-10T14:53:17.001Z,16.71
2023-04-10T14:58:20.612Z,16.69
2023-04-10T15:03:25.333Z,16.68
2023-04-10T15:08:29.019Z,16.69
2023-04-10T15:13:32.960Z,16.72
2023-04-10T15:18:36.168Z,16.73
2023-04-10T15:23:39.814Z,16.71
2023-04-10T15:28:43.646Z,16.68
2023-04-10T15:33:47.059Z,16.62
2023-04-10T15:38:50.505Z,16.56
2023-04-10T15:43:54.352Z,16.46
2023-04-10T15:48:59.183Z,16.38
2023-04-10T15:54:05.397Z,16.28
2023-04-10T15:59:09.551Z,16.24
2023-04-10T16:04:13.230Z,16.19
2023-04-10T16:14:24.843Z,15.95
2023-04-10T16:19:32.199Z,15.84
2023-04-10T16:24:35.731Z,15.72
2023-04-10T16:29:39.150Z,15.58
2023-04-10T16:34:42.739Z,15.40
2023-04-10T16:39:46.204Z,15.23
2023-04-10T16:44:49.696Z,15.08
2023-04-10T16:49:52.935Z,14.97
2023-04-10T16:54:56.760Z,14.93
2023-04-10T17:00:01.104Z,14.88
2023-04-10T17:05:05.074Z,14.80
2023-04-10T17:10:09.277Z,14.63
2023-04-10T17:15:12.850Z,14.46
2023-04-10T17:20:17.007Z,14.32
2023-04-10T17:25:20.773Z,14.15
2023-04-10T17:30:27.164Z,13.97
2023-04-10T17:35:44.504Z,13.85
2023-04-10T17:40:48.029Z,13.70
2023-04-10T17:45:54.958Z,13.56
2023-04-10T17:50:59.057Z,13.39
2023-04-10T17:56:03.540Z,13.25
2023-04-10T18:01:09.493Z,13.08
2023-04-10T18:06:33.321Z,12.90
2023-04-10T18:11:37.280Z,12.78
2023-04-10T18:16:48.954Z,12.65
2023-04-10T18:21:52.723Z,12.52
2023-04-10T18:26:56.683Z,12.40
2023-04-10T18:32:00.276Z,12.29
2023-04-10T18:37:03.773Z,12.17
2023-04-10T18:42:28.049Z,12.02
2023-04-10T18:47:34.300Z,11.92
2023-04-10T18:52:38.080Z,11.78
2023-04-10T18:57:41.779Z,11.64
2023-04-10T19:02:48.945Z,11.54
2023-04-10T19:08:03.016Z,11.46
2023-04-10T19:13:12.087Z,11.44
2023-04-10T19:18:16.561Z,11.43
2023-04-10T19:23:21.587Z,11.34
2023-04-10T19:28:26.591Z,11.18
2023-04-10T19:33:31.490Z,11.18
2023-04-10T19:38:36.543Z,11.04
2023-04-10T19:43:40.571Z,10.89
2023-04-10T19:48:44.528Z,10.86
2023-04-10T19:53:48.007Z,10.84
2023-04-10T19:58:57.954Z,10.81
2023-04-10T20:04:02.037Z,10.73
2023-04-10T20:09:05.666Z,10.61
2023-04-10T20:14:10.762Z,10.54
2023-04-10T20:19:26.982Z,10.42
2023-04-10T20:24:30.470Z,10.31
2023-04-10T20:29:33.903Z,10.26
2023-04-10T20:34:37.703Z,10.23
2023-04-10T20:39:41.180Z,10.20
2023-04-10T20:44:46.905Z,10.11
2023-04-10T20:49:50.837Z,10.03
2023-04-10T20:54:54.267Z,9.99
2023-04-10T20:59:57.659Z,9.96
2023-04-10T21:05:12.393Z,9.87
2023-04-10T21:10:23.653Z,9.81
2023-04-10T21:15:29.930Z,9.75
2023-04-10T21:20:36.166Z,9.64
2023-04-10T21:25:39.695Z,9.53
2023-04-10T21:30:45.494Z,9.46
2023-04-10T21:35:51.912Z,9.46
2023-04-10T21:41:26.020Z,9.42
2023-04-10T21:46:31.124Z,9.31
2023-04-10T21:51:55.140Z,9.20
2023-04-10T21:57:01.939Z,9.10
2023-04-10T22:02:10.789Z,9.02
2023-04-10T22:07:14.426Z,9.01
2023-04-10T22:12:34.417Z,9.05
2023-04-10T22:17:58.364Z,8.96
2023-04-10T22:23:22.468Z,8.92
2023-04-10T22:28:26.022Z,8.87
2023-04-10T22:33:32.615Z,8.77
2023-04-10T22:38:35.868Z,8.71
2023-04-10T22:43:39.146Z,8.64
2023-04-10T22:48:55.397Z,8.55
2023-04-10T22:54:01.402Z,8.47
2023-04-10T22:59:05.320Z,8.36
2023-04-10T23:04:08.659Z,8.32
2023-04-10T23:09:12.103Z,8.34
2023-04-10T23:14:15.619Z,8.31
2023-04-10T23:19:19.274Z,8.24
2023-04-10T23:24:45.822Z,8.12
2023-04-10T23:29:50.238Z,8.03
2023-04-10T23:34:53.594Z,7.99
2023-04-10T23:39:57.120Z,7.96
2023-04-10T23:45:06.281Z,7.92
2023-04-10T23:50:10.462Z,7.86
2023-04-10T23:55:23.885Z,7.74
